sensor_id;sensor_type;location;lat;lon;timestamp;temperature;humidity
51175;DHT22;37240;50.104;20.010;2022-11-15T00:00:31;8.30;99.90
51175;DHT22;37240;50.104;20.010;2022-11-15T00:05:34;8.40;99.90
51175;DHT22;37240;50.104;20.010;2022-11-15T00:10:36;8.40;99.90
51175;DHT22;37240;50.104;20.010;2022-11-15T00:15:37;8.40;99.90
51175;DHT22;37240;50.104;20.010;2022-11-15T00:20:38;8.30;99.90
51175;DHT22;37240;50.104;20.010;2022-11-15T00:25:39;8.30;99.90
51175;DHT22;37240;50.104;20.010;2022-11-15T00:30:39;8.40;99.90
51175;DHT22;37240;50.104;20.010;2022-11-15T00:35:40;8.40;99.90
51175;DHT22;37240;50.104;20.010;2022-11-15T00:40:41;8.40;99.90
51175;DHT22;37240;50.104;20.010;2022-11-15T00:45:41;8.50;99.90
51175;DHT22;37240;50.104;20.010;2022-11-15T00:50:42;8.40;99.90
51175;DHT22;37240;50.104;20.010;2022-11-15T00:55:42;8.30;99.90
51175;DHT22;37240;50.104;20.010;2022-11-15T01:00:43;8.40;99.90
51175;DHT22;37240;50.104;20.010;2022-11-15T01:05:43;8.30;99.90
51175;DHT22;37240;50.104;20.010;2022-11-15T01:10:44;8.20;99.90
51175;DHT22;37240;50.104;20.010;2022-11-15T01:15:44;8.20;99.90
51175;DHT22;37240;50.104;20.010;2022-11-15T01:20:45;8.10;99.90
51175;DHT22;37240;50.104;20.010;2022-11-15T01:25:45;8.20;99.90
51175;DHT22;37240;50.104;20.010;2022-11-15T01:30:46;8.20;99.90
51175;DHT22;37240;50.104;20.010;2022-11-15T01:35:46;8.10;99.90
51175;DHT22;37240;50.104;20.010;2022-11-15T01:40:47;8.20;99.90
51175;DHT22;37240;50.104;20.010;2022-11-15T01:46:19;8.20;99.90
51175;DHT22;37240;50.104;20.010;2022-11-15T01:51:24;8.20;99.90
51175;DHT22;37240;50.104;20.010;2022-11-15T01:56:30;8.20;99.90
51175;DHT22;37240;50.104;20.010;2022-11-15T02:01:32;8.30;99.90
51175;DHT22;37240;50.104;20.010;2022-11-15T02:06:34;8.30;99.90
51175;DHT22;37240;50.104;20.010;2022-11-15T02:11:36;8.30;99.90
51175;DHT22;37240;50.104;20.010;2022-11-15T02:22:45;8.40;99.90
51175;DHT22;37240;50.104;20.010;2022-11-15T02:28:22;8.40;99.90
51175;DHT22;37240;50.104;20.010;2022-11-15T02:33:39;8.40;99.90
51175;DHT22;37240;50.104;20.010;2022-11-15T02:39:07;8.40;99.90
51175;DHT22;37240;50.104;20.010;2022-11-15T02:44:17;8.40;99.90
51175;DHT22;37240;50.104;20.010;2022-11-15T02:49:21;8.40;99.90
51175;DHT22;37240;50.104;20.010;2022-11-15T02:54:25;8.40;99.90
51175;DHT22;37240;50.104;20.010;2022-11-15T03:10:12;8.50;99.90
51175;DHT22;37240;50.104;20.010;2022-11-15T03:15:21;8.50;99.90
51175;DHT22;37240;50.104;20.010;2022-11-15T03:20:25;8.50;99.90
51175;DHT22;37240;50.104;20.010;2022-11-15T03:25:28;8.50;99.90
51175;DHT22;37240;50.104;20.010;2022-11-15T03:30:31;8.50;99.90
51175;DHT22;37240;50.104;20.010;2022-11-15T03:35:37;8.40;99.90
51175;DHT22;37240;50.104;20.010;2022-11-15T03:40:40;8.50;99.90
51175;DHT22;37240;50.104;20.010;2022-11-15T03:46:07;8.40;99.90
51175;DHT22;37240;50.104;20.010;2022-11-15T03:51:06;8.40;99.90
51175;DHT22;37240;50.104;20.010;2022-11-15T03:56:06;8.40;99.90
51175;DHT22;37240;50.104;20.010;2022-11-15T04:01:07;8.50;99.90
51175;DHT22;37240;50.104;20.010;2022-11-15T04:06:07;8.50;99.90
51175;DHT22;37240;50.104;20.010;2022-11-15T04:11:08;8.40;99.90
51175;DHT22;37240;50.104;20.010;2022-11-15T04:16:08;8.40;99.90
51175;DHT22;37240;50.104;20.010;2022-11-15T04:21:09;8.40;99.90
51175;DHT22;37240;50.104;20.010;2022-11-15T04:26:12;8.40;99.90
51175;DHT22;37240;50.104;20.010;2022-11-15T04:31:14;8.40;99.90
51175;DHT22;37240;50.104;20.010;2022-11-15T04:36:15;8.40;99.90
51175;DHT22;37240;50.104;20.010;2022-11-15T04:41:15;8.30;99.90
51175;DHT22;37240;50.104;20.010;2022-11-15T04:46:16;8.30;99.90
51175;DHT22;37240;50.104;20.010;2022-11-15T04:51:17;8.30;99.90
51175;DHT22;37240;50.104;20.010;2022-11-15T04:56:18;8.30;99.90
51175;DHT22;37240;50.104;20.010;2022-11-15T05:01:18;8.10;99.90
51175;DHT22;37240;50.104;20.010;2022-11-15T05:06:19;8.00;99.90
51175;DHT22;37240;50.104;20.010;2022-11-15T05:11:20;8.00;99.90
51175;DHT22;37240;50.104;20.010;2022-11-15T05:16:20;8.10;99.90
51175;DHT22;37240;50.104;20.010;2022-11-15T05:21:22;8.10;99.90
51175;DHT22;37240;50.104;20.010;2022-11-15T05:26:23;8.10;99.90
51175;DHT22;37240;50.104;20.010;2022-11-15T05:31:24;8.10;99.90
51175;DHT22;37240;50.104;20.010;2022-11-15T05:41:40;7.90;99.90
51175;DHT22;37240;50.104;20.010;2022-11-15T05:46:42;7.80;99.90
51175;DHT22;37240;50.104;20.010;2022-11-15T05:51:44;7.90;99.90
51175;DHT22;37240;50.104;20.010;2022-11-15T05:56:46;7.70;99.90
51175;DHT22;37240;50.104;20.010;2022-11-15T06:01:46;7.70;99.90
51175;DHT22;37240;50.104;20.010;2022-11-15T06:06:47;7.70;99.90
51175;DHT22;37240;50.104;20.010;2022-11-15T06:11:47;7.70;99.90
51175;DHT22;37240;50.104;20.010;2022-11-15T06:16:48;7.60;99.90
51175;DHT22;37240;50.104;20.010;2022-11-15T06:21:48;7.70;99.90
51175;DHT22;37240;50.104;20.010;2022-11-15T06:26:49;7.70;99.90
51175;DHT22;37240;50.104;20.010;2022-11-15T06:31:49;7.70;99.90
51175;DHT22;37240;50.104;20.010;2022-11-15T06:36:50;7.60;99.90
51175;DHT22;37240;50.104;20.010;2022-11-15T06:41:50;7.60;99.90
51175;DHT22;37240;50.104;20.010;2022-11-15T06:46:51;7.50;99.90
51175;DHT22;37240;50.104;20.010;2022-11-15T06:51:51;7.50;99.90
51175;DHT22;37240;50.104;20.010;2022-11-15T06:56:52;7.60;99.90
51175;DHT22;37240;50.104;20.010;2022-11-15T07:01:52;7.70;99.90
51175;DHT22;37240;50.104;20.010;2022-11-15T07:06:53;7.60;99.90
51175;DHT22;37240;50.104;20.010;2022-11-15T07:11:53;7.70;99.90
51175;DHT22;37240;50.104;20.010;2022-11-15T07:16:54;7.70;99.90
51175;DHT22;37240;50.104;20.010;2022-11-15T07:21:54;7.80;99.90
51175;DHT22;37240;50.104;20.010;2022-11-15T07:26:55;7.80;99.90
51175;DHT22;37240;50.104;20.010;2022-11-15T07:31:55;7.70;99.90
51175;DHT22;37240;50.104;20.010;2022-11-15T07:36:55;7.80;99.90
51175;DHT22;37240;50.104;20.010;2022-11-15T07:41:56;7.70;99.90
51175;DHT22;37240;50.104;20.010;2022-11-15T07:46:56;7.80;99.90
51175;DHT22;37240;50.104;20.010;2022-11-15T07:51:57;7.80;99.90
51175;DHT22;37240;50.104;20.010;2022-11-15T07:56:57;7.80;99.90
51175;DHT22;37240;50.104;20.010;2022-11-15T08:01:58;8.10;99.90
51175;DHT22;37240;50.104;20.010;2022-11-15T08:06:58;8.20;99.90
51175;DHT22;37240;50.104;20.010;2022-11-15T08:11:59;8.30;99.90
51175;DHT22;37240;50.104;20.010;2022-11-15T08:16:59;8.40;99.90
51175;DHT22;37240;50.104;20.010;2022-11-15T08:22:00;8.50;99.90
51175;DHT22;37240;50.104;20.010;2022-11-15T08:27:00;8.50;99.90
51175;DHT22;37240;50.104;20.010;2022-11-15T08:32:01;8.50;99.90
51175;DHT22;37240;50.104;20.010;2022-11-15T08:37:01;8.50;99.90
51175;DHT22;37240;50.104;20.010;2022-11-15T08:42:02;8.50;99.90
51175;DHT22;37240;50.104;20.010;2022-11-15T08:47:02;8.60;99.90
51175;DHT22;37240;50.104;20.010;2022-11-15T08:52:03;8.70;99.90
51175;DHT22;37240;50.104;20.010;2022-11-15T08:57:03;8.80;99.90
51175;DHT22;37240;50.104;20.010;2022-11-15T09:02:04;8.90;99.90
51175;DHT22;37240;50.104;20.010;2022-11-15T09:07:05;9.00;99.90
51175;DHT22;37240;50.104;20.010;2022-11-15T09:12:07;9.10;99.90
51175;DHT22;37240;50.104;20.010;2022-11-15T09:17:08;9.30;99.90
51175;DHT22;37240;50.104;20.010;2022-11-15T09:22:09;9.40;99.90
51175;DHT22;37240;50.104;20.010;2022-11-15T09:27:10;9.70;99.90
51175;DHT22;37240;50.104;20.010;2022-11-15T09:32:10;9.90;99.90
51175;DHT22;37240;50.104;20.010;2022-11-15T09:37:11;10.10;99.90
51175;DHT22;37240;50.104;20.010;2022-11-15T09:42:37;10.40;99.90
51175;DHT22;37240;50.104;20.010;2022-11-15T09:48:13;10.60;99.90
51175;DHT22;37240;50.104;20.010;2022-11-15T09:53:39;10.70;99.90
51175;DHT22;37240;50.104;20.010;2022-11-15T10:03:57;11.10;99.90
51175;DHT22;37240;50.104;20.010;2022-11-15T10:09:21;11.10;99.90
51175;DHT22;37240;50.104;20.010;2022-11-15T10:14:26;11.10;99.90
51175;DHT22;37240;50.104;20.010;2022-11-15T10:25:20;11.30;99.90
51175;DHT22;37240;50.104;20.010;2022-11-15T10:30:19;11.40;99.90
51175;DHT22;37240;50.104;20.010;2022-11-15T10:35:26;11.40;99.90
51175;DHT22;37240;50.104;20.010;2022-11-15T10:40:27;11.50;99.90
51175;DHT22;37240;50.104;20.010;2022-11-15T10:45:30;11.50;99.90
51175;DHT22;37240;50.104;20.010;2022-11-15T10:50:32;11.60;99.90
51175;DHT22;37240;50.104;20.010;2022-11-15T10:55:33;11.70;99.90
51175;DHT22;37240;50.104;20.010;2022-11-15T11:00:36;11.70;99.90
51175;DHT22;37240;50.104;20.010;2022-11-15T11:05:39;11.70;99.90
51175;DHT22;37240;50.104;20.010;2022-11-15T11:10:55;11.80;99.90
51175;DHT22;37240;50.104;20.010;2022-11-15T11:32:38;12.10;99.90
51175;DHT22;37240;50.104;20.010;2022-11-15T11:37:49;12.10;99.90
51175;DHT22;37240;50.104;20.010;2022-11-15T11:43:05;12.20;99.90
51175;DHT22;37240;50.104;20.010;2022-11-15T11:48:12;12.30;99.90
51175;DHT22;37240;50.104;20.010;2022-11-15T11:53:25;12.30;99.90
51175;DHT22;37240;50.104;20.010;2022-11-15T11:58:35;12.40;99.90
51175;DHT22;37240;50.104;20.010;2022-11-15T12:08:52;12.50;99.90
51175;DHT22;37240;50.104;20.010;2022-11-15T12:13:58;12.60;99.90
51175;DHT22;37240;50.104;20.010;2022-11-15T12:19:03;12.60;99.90
51175;DHT22;37240;50.104;20.010;2022-11-15T12:24:26;12.70;99.90
51175;DHT22;37240;50.104;20.010;2022-11-15T12:29:42;12.70;99.90
51175;DHT22;37240;50.104;20.010;2022-11-15T12:34:45;12.80;99.90
51175;DHT22;37240;50.104;20.010;2022-11-15T12:45:31;12.80;99.90
51175;DHT22;37240;50.104;20.010;2022-11-15T13:11:45;12.60;99.90
51175;DHT22;37240;50.104;20.010;2022-11-15T13:16:46;12.60;99.90
51175;DHT22;37240;50.104;20.010;2022-11-15T13:21:49;12.60;99.90
51175;DHT22;37240;50.104;20.010;2022-11-15T13:26:49;12.50;99.90
51175;DHT22;37240;50.104;20.010;2022-11-15T13:31:51;12.60;99.90
51175;DHT22;37240;50.104;20.010;2022-11-15T13:36:51;12.50;99.90
51175;DHT22;37240;50.104;20.010;2022-11-15T13:41:52;12.60;99.90
51175;DHT22;37240;50.104;20.010;2022-11-15T13:47:12;12.60;99.90
51175;DHT22;37240;50.104;20.010;2022-11-15T13:52:14;12.60;99.90
51175;DHT22;37240;50.104;20.010;2022-11-15T13:57:30;12.70;99.90
51175;DHT22;37240;50.104;20.010;2022-11-15T14:02:34;12.60;99.90
51175;DHT22;37240;50.104;20.010;2022-11-15T14:07:36;12.60;99.90
51175;DHT22;37240;50.104;20.010;2022-11-15T14:12:36;12.60;99.90
51175;DHT22;37240;50.104;20.010;2022-11-15T14:17:38;12.50;99.90
51175;DHT22;37240;50.104;20.010;2022-11-15T14:22:51;12.50;99.90
51175;DHT22;37240;50.104;20.010;2022-11-15T14:28:15;12.40;99.90
51175;DHT22;37240;50.104;20.010;2022-11-15T14:38:26;12.40;99.90
51175;DHT22;37240;50.104;20.010;2022-11-15T14:43:26;12.40;99.90
51175;DHT22;37240;50.104;20.010;2022-11-15T14:48:27;12.40;99.90
51175;DHT22;37240;50.104;20.010;2022-11-15T14:53:27;12.40;99.90
51175;DHT22;37240;50.104;20.010;2022-11-15T14:58:28;12.50;99.90
51175;DHT22;37240;50.104;20.010;2022-11-15T15:03:28;12.40;99.90
51175;DHT22;37240;50.104;20.010;2022-11-15T15:08:29;12.40;99.90
51175;DHT22;37240;50.104;20.010;2022-11-15T15:13:29;12.40;99.90
51175;DHT22;37240;50.104;20.010;2022-11-15T15:18:30;12.40;99.90
51175;DHT22;37240;50.104;20.010;2022-11-15T15:23:30;12.40;99.90
51175;DHT22;37240;50.104;20.010;2022-11-15T15:28:31;12.40;99.90
51175;DHT22;37240;50.104;20.010;2022-11-15T15:33:32;12.40;99.90
51175;DHT22;37240;50.104;20.010;2022-11-15T15:38:32;12.30;99.90
51175;DHT22;37240;50.104;20.010;2022-11-15T15:43:33;12.30;99.90
51175;DHT22;37240;50.104;20.010;2022-11-15T15:48:33;12.30;99.90
51175;DHT22;37240;50.104;20.010;2022-11-15T15:53:34;12.30;99.90
51175;DHT22;37240;50.104;20.010;2022-11-15T15:58:35;12.40;99.90
51175;DHT22;37240;50.104;20.010;2022-11-15T16:03:35;12.40;99.90
51175;DHT22;37240;50.104;20.010;2022-11-15T16:08:36;12.50;99.90
51175;DHT22;37240;50.104;20.010;2022-11-15T16:13:36;12.50;99.90
51175;DHT22;37240;50.104;20.010;2022-11-15T16:18:36;12.50;99.90
51175;DHT22;37240;50.104;20.010;2022-11-15T16:23:37;12.40;99.90
51175;DHT22;37240;50.104;20.010;2022-11-15T16:28:37;12.40;99.90
51175;DHT22;37240;50.104;20.010;2022-11-15T16:33:39;12.40;99.90
51175;DHT22;37240;50.104;20.010;2022-11-15T16:38:39;12.50;99.90
51175;DHT22;37240;50.104;20.010;2022-11-15T16:43:40;12.40;99.90
51175;DHT22;37240;50.104;20.010;2022-11-15T16:48:40;12.40;99.90
51175;DHT22;37240;50.104;20.010;2022-11-15T16:53:41;12.40;99.90
51175;DHT22;37240;50.104;20.010;2022-11-15T16:58:42;12.40;99.90
51175;DHT22;37240;50.104;20.010;2022-11-15T17:03:42;12.40;99.90
51175;DHT22;37240;50.104;20.010;2022-11-15T17:08:44;12.40;99.90
51175;DHT22;37240;50.104;20.010;2022-11-15T17:13:44;12.40;99.90
51175;DHT22;37240;50.104;20.010;2022-11-15T17:18:50;12.40;99.90
51175;DHT22;37240;50.104;20.010;2022-11-15T17:23:50;12.40;99.90
51175;DHT22;37240;50.104;20.010;2022-11-15T17:28:54;12.40;99.90
51175;DHT22;37240;50.104;20.010;2022-11-15T17:33:54;12.40;99.90
51175;DHT22;37240;50.104;20.010;2022-11-15T17:38:55;12.40;99.90
51175;DHT22;37240;50.104;20.010;2022-11-15T17:43:56;12.30;99.90
51175;DHT22;37240;50.104;20.010;2022-11-15T17:48:57;12.30;99.90
51175;DHT22;37240;50.104;20.010;2022-11-15T17:53:58;12.40;99.90
51175;DHT22;37240;50.104;20.010;2022-11-15T17:58:59;12.30;99.90
51175;DHT22;37240;50.104;20.010;2022-11-15T18:04:02;12.40;99.90
51175;DHT22;37240;50.104;20.010;2022-11-15T18:09:03;12.40;99.90
51175;DHT22;37240;50.104;20.010;2022-11-15T18:14:06;12.40;99.90
51175;DHT22;37240;50.104;20.010;2022-11-15T18:19:08;12.40;99.90
51175;DHT22;37240;50.104;20.010;2022-11-15T18:24:08;12.30;99.90
51175;DHT22;37240;50.104;20.010;2022-11-15T18:29:09;12.30;99.90
51175;DHT22;37240;50.104;20.010;2022-11-15T18:34:10;12.40;99.90
51175;DHT22;37240;50.104;20.010;2022-11-15T18:39:10;12.40;99.90
51175;DHT22;37240;50.104;20.010;2022-11-15T18:44:11;12.40;99.90
51175;DHT22;37240;50.104;20.010;2022-11-15T18:49:13;12.40;99.90
51175;DHT22;37240;50.104;20.010;2022-11-15T18:54:16;12.40;99.90
51175;DHT22;37240;50.104;20.010;2022-11-15T18:59:16;12.40;99.90
51175;DHT22;37240;50.104;20.010;2022-11-15T19:04:19;12.40;99.90
51175;DHT22;37240;50.104;20.010;2022-11-15T19:09:20;12.40;99.90
51175;DHT22;37240;50.104;20.010;2022-11-15T19:14:20;12.30;99.90
51175;DHT22;37240;50.104;20.010;2022-11-15T19:19:23;12.40;99.90
51175;DHT22;37240;50.104;20.010;2022-11-15T19:24:24;12.40;99.90
51175;DHT22;37240;50.104;20.010;2022-11-15T19:29:25;12.50;99.90
51175;DHT22;37240;50.104;20.010;2022-11-15T19:34:25;12.50;99.90
51175;DHT22;37240;50.104;20.010;2022-11-15T19:39:25;12.50;99.90
51175;DHT22;37240;50.104;20.010;2022-11-15T19:44:26;12.50;99.90
51175;DHT22;37240;50.104;20.010;2022-11-15T19:49:27;12.50;99.90
51175;DHT22;37240;50.104;20.010;2022-11-15T19:54:27;12.50;99.90
51175;DHT22;37240;50.104;20.010;2022-11-15T19:59:28;12.30;99.90
51175;DHT22;37240;50.104;20.010;2022-11-15T20:04:28;12.30;99.90
51175;DHT22;37240;50.104;20.010;2022-11-15T20:09:29;12.30;99.90
51175;DHT22;37240;50.104;20.010;2022-11-15T20:14:29;12.30;99.90
51175;DHT22;37240;50.104;20.010;2022-11-15T20:19:30;12.40;99.90
51175;DHT22;37240;50.104;20.010;2022-11-15T20:24:30;12.40;99.90
51175;DHT22;37240;50.104;20.010;2022-11-15T20:29:30;12.30;99.90
51175;DHT22;37240;50.104;20.010;2022-11-15T20:34:31;12.30;99.90
51175;DHT22;37240;50.104;20.010;2022-11-15T20:39:32;12.30;99.90
51175;DHT22;37240;50.104;20.010;2022-11-15T20:44:32;12.30;99.90
51175;DHT22;37240;50.104;20.010;2022-11-15T20:49:33;12.30;99.90
51175;DHT22;37240;50.104;20.010;2022-11-15T20:54:33;12.30;99.90
51175;DHT22;37240;50.104;20.010;2022-11-15T20:59:34;12.30;99.90
51175;DHT22;37240;50.104;20.010;2022-11-15T21:04:34;12.30;99.90
51175;DHT22;37240;50.104;20.010;2022-11-15T21:09:36;12.30;99.90
51175;DHT22;37240;50.104;20.010;2022-11-15T21:14:37;12.20;99.90
51175;DHT22;37240;50.104;20.010;2022-11-15T21:19:38;12.20;99.90
51175;DHT22;37240;50.104;20.010;2022-11-15T21:24:39;12.20;99.90
51175;DHT22;37240;50.104;20.010;2022-11-15T21:29:39;12.30;99.90
51175;DHT22;37240;50.104;20.010;2022-11-15T21:34:40;12.30;99.90
51175;DHT22;37240;50.104;20.010;2022-11-15T21:39:41;12.30;99.90
51175;DHT22;37240;50.104;20.010;2022-11-15T21:44:41;12.30;99.90
51175;DHT22;37240;50.104;20.010;2022-11-15T21:49:42;12.30;99.90
51175;DHT22;37240;50.104;20.010;2022-11-15T21:54:42;12.30;99.90
51175;DHT22;37240;50.104;20.010;2022-11-15T21:59:43;12.20;99.90
51175;DHT22;37240;50.104;20.010;2022-11-15T22:04:43;12.20;99.90
51175;DHT22;37240;50.104;20.010;2022-11-15T22:09:44;12.20;99.90
51175;DHT22;37240;50.104;20.010;2022-11-15T22:14:44;12.20;99.90
51175;DHT22;37240;50.104;20.010;2022-11-15T22:19:45;12.30;99.90
51175;DHT22;37240;50.104;20.010;2022-11-15T22:24:45;12.30;99.90
51175;DHT22;37240;50.104;20.010;2022-11-15T22:29:46;12.30;99.90
51175;DHT22;37240;50.104;20.010;2022-11-15T22:34:46;12.30;99.90
51175;DHT22;37240;50.104;20.010;2022-11-15T22:39:47;12.30;99.90
51175;DHT22;37240;50.104;20.010;2022-11-15T22:44:47;12.40;99.90
51175;DHT22;37240;50.104;20.010;2022-11-15T22:49:48;12.40;99.90
51175;DHT22;37240;50.104;20.010;2022-11-15T22:54:48;12.40;99.90
51175;DHT22;37240;50.104;20.010;2022-11-15T22:59:49;12.40;99.90
51175;DHT22;37240;50.104;20.010;2022-11-15T23:04:49;12.40;99.90
51175;DHT22;37240;50.104;20.010;2022-11-15T23:09:49;12.30;99.90
51175;DHT22;37240;50.104;20.010;2022-11-15T23:14:50;12.30;99.90
51175;DHT22;37240;50.104;20.010;2022-11-15T23:19:50;12.30;99.90
51175;DHT22;37240;50.104;20.010;2022-11-15T23:24:51;12.30;99.90
51175;DHT22;37240;50.104;20.010;2022-11-15T23:29:51;12.30;99.90
51175;DHT22;37240;50.104;20.010;2022-11-15T23:34:52;12.30;99.90
51175;DHT22;37240;50.104;20.010;2022-11-15T23:39:52;12.30;99.90
51175;DHT22;37240;50.104;20.010;2022-11-15T23:44:53;12.40;99.90
51175;DHT22;37240;50.104;20.010;2022-11-15T23:49:53;12.40;99.90
51175;DHT22;37240;50.104;20.010;2022-11-15T23:54:54;12.40;99.90
51175;DHT22;37240;50.104;20.010;2022-11-15T23:59:54;12.40;99.90
